KCAE/CAE METAR and TAF weather

Enter ICAO airport designator
Station Type Date Time Source
KCAE METAR 2019/02/23 16:56 UTC NOAA

KCAE 231656Z 05006KT 3SM -DZ BR OVC004 08/08 A3023 RMK AO2 SLP236 P0000 T00780078 $


Station Type Date Time Source
KCAE Decoded METAR 2019/02/23 16:56 UTC NOAA

COLUMBIA METROPOLITAN AIRPORT , SC, United States (KCAE) 33-57N 081-07W 73M
Feb 23, 2019 - 11:56 AM EST / 2019.02.23 1656 UTC
Wind: from the NE (050 degrees) at 7 MPH (6 KT):0
Visibility: 3 mile(s):0
Sky conditions: overcast
Weather: light drizzle; mist
Precipitation last hour: A trace
Temperature: 46.0 F (7.8 C)
Dew Point: 46.0 F (7.8 C)
Relative Humidity: 100%
Pressure (altimeter): 30.23 in. Hg (1023 hPa)
ob: KCAE 231656Z 05006KT 3SM -DZ BR OVC004 08/08 A3023 RMK AO2 SLP236 P0000 T00780078
cycle: 17

Station Type Date Time Source
KCAE TAF 2019/02/23 14:09 UTC NOAA

TAF
AMD KCAE 231406Z 2314/2412 06008KT 2SM -DZ BR OVC005
FM232200 05003KT 2SM -DZ BR OVC003 WS020/20032KT
FM240600 10004KT 1/2SM FG VV003 WS020/23042KT


Example: see airport list